sensor_id;sensor_type;location;lat;lon;timestamp;P1;durP1;ratioP1;P2;durP2;ratioP2
18726;SDS011;9492;51.888;5.186;2023-03-24T00:00:34;3.37;;;1.80;;
18726;SDS011;9492;51.888;5.186;2023-03-24T00:03:13;4.77;;;2.27;;
18726;SDS011;9492;51.888;5.186;2023-03-24T00:05:43;3.70;;;2.10;;
18726;SDS011;9492;51.888;5.186;2023-03-24T00:08:18;3.43;;;2.00;;
18726;SDS011;9492;51.888;5.186;2023-03-24T00:10:47;5.13;;;2.00;;
18726;SDS011;9492;51.888;5.186;2023-03-24T00:13:29;3.50;;;2.50;;
18726;SDS011;9492;51.888;5.186;2023-03-24T00:16:08;5.60;;;2.23;;
18726;SDS011;9492;51.888;5.186;2023-03-24T00:18:35;5.57;;;2.50;;
18726;SDS011;9492;51.888;5.186;2023-03-24T00:21:07;3.33;;;2.20;;
18726;SDS011;9492;51.888;5.186;2023-03-24T00:23:44;7.30;;;2.90;;
18726;SDS011;9492;51.888;5.186;2023-03-24T00:26:18;4.23;;;2.57;;
18726;SDS011;9492;51.888;5.186;2023-03-24T00:28:56;5.27;;;2.40;;
18726;SDS011;9492;51.888;5.186;2023-03-24T00:34:24;4.93;;;2.40;;
18726;SDS011;9492;51.888;5.186;2023-03-24T00:36:51;5.33;;;2.27;;
18726;SDS011;9492;51.888;5.186;2023-03-24T00:39:41;4.10;;;2.43;;
18726;SDS011;9492;51.888;5.186;2023-03-24T00:42:07;3.53;;;2.30;;
18726;SDS011;9492;51.888;5.186;2023-03-24T00:44:36;2.93;;;2.00;;
18726;SDS011;9492;51.888;5.186;2023-03-24T00:47:02;3.67;;;2.60;;
18726;SDS011;9492;51.888;5.186;2023-03-24T04:30:25;10.20;;;2.20;;
18726;SDS011;9492;51.888;5.186;2023-03-24T04:34:52;12.03;;;2.40;;
18726;SDS011;9492;51.888;5.186;2023-03-24T04:37:40;9.60;;;2.40;;
18726;SDS011;9492;51.888;5.186;2023-03-24T04:40:10;13.20;;;2.40;;
18726;SDS011;9492;51.888;5.186;2023-03-24T04:42:42;11.53;;;2.53;;
18726;SDS011;9492;51.888;5.186;2023-03-24T04:45:09;15.37;;;3.40;;
18726;SDS011;9492;51.888;5.186;2023-03-24T04:47:39;16.37;;;3.03;;
18726;SDS011;9492;51.888;5.186;2023-03-24T04:50:07;11.70;;;3.20;;
18726;SDS011;9492;51.888;5.186;2023-03-24T04:52:35;11.83;;;3.47;;
18726;SDS011;9492;51.888;5.186;2023-03-24T04:55:01;15.20;;;2.60;;
18726;SDS011;9492;51.888;5.186;2023-03-24T04:57:28;15.87;;;3.30;;
18726;SDS011;9492;51.888;5.186;2023-03-24T04:59:54;17.20;;;4.00;;
18726;SDS011;9492;51.888;5.186;2023-03-24T05:02:20;13.87;;;3.87;;
18726;SDS011;9492;51.888;5.186;2023-03-24T05:04:46;15.13;;;3.47;;
18726;SDS011;9492;51.888;5.186;2023-03-24T05:07:12;13.30;;;3.10;;
18726;SDS011;9492;51.888;5.186;2023-03-24T05:09:39;18.60;;;3.47;;
18726;SDS011;9492;51.888;5.186;2023-03-24T05:12:05;10.27;;;3.00;;
18726;SDS011;9492;51.888;5.186;2023-03-24T05:14:31;8.40;;;2.80;;
18726;SDS011;9492;51.888;5.186;2023-03-24T05:16:57;11.87;;;3.23;;
18726;SDS011;9492;51.888;5.186;2023-03-24T05:19:23;14.60;;;3.37;;
18726;SDS011;9492;51.888;5.186;2023-03-24T05:21:49;10.53;;;3.33;;
18726;SDS011;9492;51.888;5.186;2023-03-24T05:24:15;9.03;;;3.00;;
18726;SDS011;9492;51.888;5.186;2023-03-24T05:26:41;10.73;;;3.13;;
18726;SDS011;9492;51.888;5.186;2023-03-24T05:29:07;11.30;;;3.30;;
18726;SDS011;9492;51.888;5.186;2023-03-24T05:31:33;13.30;;;3.80;;
18726;SDS011;9492;51.888;5.186;2023-03-24T05:34:00;12.37;;;3.50;;
18726;SDS011;9492;51.888;5.186;2023-03-24T05:36:26;12.47;;;4.03;;
18726;SDS011;9492;51.888;5.186;2023-03-24T05:38:52;17.93;;;3.20;;
18726;SDS011;9492;51.888;5.186;2023-03-24T05:41:18;13.13;;;3.40;;
18726;SDS011;9492;51.888;5.186;2023-03-24T05:43:44;14.90;;;3.57;;
18726;SDS011;9492;51.888;5.186;2023-03-24T05:46:10;10.40;;;3.03;;
18726;SDS011;9492;51.888;5.186;2023-03-24T05:48:36;13.43;;;3.20;;
18726;SDS011;9492;51.888;5.186;2023-03-24T05:51:02;10.23;;;3.03;;
18726;SDS011;9492;51.888;5.186;2023-03-24T05:53:28;18.20;;;4.37;;
18726;SDS011;9492;51.888;5.186;2023-03-24T05:55:55;14.80;;;3.40;;
18726;SDS011;9492;51.888;5.186;2023-03-24T05:58:22;12.17;;;2.67;;
18726;SDS011;9492;51.888;5.186;2023-03-24T06:00:48;9.20;;;3.07;;
18726;SDS011;9492;51.888;5.186;2023-03-24T06:03:14;11.80;;;2.77;;
18726;SDS011;9492;51.888;5.186;2023-03-24T06:05:41;12.60;;;3.27;;
18726;SDS011;9492;51.888;5.186;2023-03-24T06:08:09;15.57;;;3.97;;
18726;SDS011;9492;51.888;5.186;2023-03-24T06:10:35;6.77;;;2.23;;
18726;SDS011;9492;51.888;5.186;2023-03-24T06:13:01;10.70;;;2.97;;
18726;SDS011;9492;51.888;5.186;2023-03-24T06:15:28;9.77;;;3.33;;
18726;SDS011;9492;51.888;5.186;2023-03-24T06:17:54;13.37;;;2.93;;
18726;SDS011;9492;51.888;5.186;2023-03-24T06:20:20;14.77;;;3.50;;
18726;SDS011;9492;51.888;5.186;2023-03-24T06:22:47;11.87;;;3.50;;
18726;SDS011;9492;51.888;5.186;2023-03-24T06:25:14;13.27;;;2.87;;
18726;SDS011;9492;51.888;5.186;2023-03-24T06:27:41;9.73;;;3.73;;
18726;SDS011;9492;51.888;5.186;2023-03-24T06:30:10;11.40;;;3.47;;
18726;SDS011;9492;51.888;5.186;2023-03-24T06:32:36;7.57;;;2.80;;
18726;SDS011;9492;51.888;5.186;2023-03-24T06:35:02;12.07;;;2.97;;
18726;SDS011;9492;51.888;5.186;2023-03-24T06:37:28;12.07;;;2.80;;
18726;SDS011;9492;51.888;5.186;2023-03-24T06:39:54;8.63;;;2.60;;
18726;SDS011;9492;51.888;5.186;2023-03-24T06:42:20;14.40;;;3.10;;
18726;SDS011;9492;51.888;5.186;2023-03-24T06:44:46;14.37;;;2.63;;
18726;SDS011;9492;51.888;5.186;2023-03-24T06:47:12;8.93;;;2.87;;
18726;SDS011;9492;51.888;5.186;2023-03-24T06:49:38;12.00;;;2.60;;
18726;SDS011;9492;51.888;5.186;2023-03-24T06:52:04;8.30;;;2.50;;
18726;SDS011;9492;51.888;5.186;2023-03-24T06:54:30;12.43;;;3.03;;
18726;SDS011;9492;51.888;5.186;2023-03-24T06:56:56;8.77;;;2.60;;
18726;SDS011;9492;51.888;5.186;2023-03-24T06:59:22;15.57;;;3.70;;
18726;SDS011;9492;51.888;5.186;2023-03-24T07:01:51;7.27;;;2.77;;
18726;SDS011;9492;51.888;5.186;2023-03-24T07:04:18;15.23;;;3.10;;
18726;SDS011;9492;51.888;5.186;2023-03-24T07:06:44;11.27;;;2.77;;
18726;SDS011;9492;51.888;5.186;2023-03-24T07:09:11;15.07;;;3.00;;
18726;SDS011;9492;51.888;5.186;2023-03-24T07:11:37;9.80;;;2.70;;
18726;SDS011;9492;51.888;5.186;2023-03-24T07:14:03;13.23;;;3.40;;
18726;SDS011;9492;51.888;5.186;2023-03-24T07:16:29;11.80;;;2.97;;
18726;SDS011;9492;51.888;5.186;2023-03-24T07:18:55;10.53;;;2.80;;
18726;SDS011;9492;51.888;5.186;2023-03-24T07:21:21;13.10;;;2.80;;
18726;SDS011;9492;51.888;5.186;2023-03-24T07:23:47;13.70;;;3.50;;
18726;SDS011;9492;51.888;5.186;2023-03-24T07:26:14;12.50;;;2.97;;
18726;SDS011;9492;51.888;5.186;2023-03-24T07:28:40;14.30;;;3.30;;
18726;SDS011;9492;51.888;5.186;2023-03-24T07:31:06;11.27;;;3.47;;
18726;SDS011;9492;51.888;5.186;2023-03-24T07:33:34;5.90;;;2.30;;
18726;SDS011;9492;51.888;5.186;2023-03-24T07:36:01;12.67;;;3.00;;
18726;SDS011;9492;51.888;5.186;2023-03-24T07:38:27;10.80;;;2.93;;
18726;SDS011;9492;51.888;5.186;2023-03-24T07:40:53;14.60;;;3.00;;
18726;SDS011;9492;51.888;5.186;2023-03-24T07:43:19;11.60;;;2.97;;
18726;SDS011;9492;51.888;5.186;2023-03-24T07:45:46;9.60;;;2.57;;
18726;SDS011;9492;51.888;5.186;2023-03-24T07:48:12;10.73;;;2.80;;
18726;SDS011;9492;51.888;5.186;2023-03-24T07:50:38;12.27;;;3.50;;
18726;SDS011;9492;51.888;5.186;2023-03-24T07:53:04;10.37;;;2.90;;
18726;SDS011;9492;51.888;5.186;2023-03-24T07:55:34;9.53;;;2.90;;
18726;SDS011;9492;51.888;5.186;2023-03-24T07:58:00;8.73;;;2.90;;
18726;SDS011;9492;51.888;5.186;2023-03-24T08:00:26;9.87;;;3.27;;
18726;SDS011;9492;51.888;5.186;2023-03-24T08:02:53;9.43;;;3.00;;
18726;SDS011;9492;51.888;5.186;2023-03-24T08:05:19;10.27;;;2.67;;
18726;SDS011;9492;51.888;5.186;2023-03-24T08:07:47;10.13;;;3.07;;
18726;SDS011;9492;51.888;5.186;2023-03-24T08:10:29;14.47;;;3.40;;
18726;SDS011;9492;51.888;5.186;2023-03-24T08:12:56;12.97;;;3.10;;
18726;SDS011;9492;51.888;5.186;2023-03-24T08:15:22;13.20;;;3.10;;
18726;SDS011;9492;51.888;5.186;2023-03-24T08:17:48;11.07;;;2.70;;
18726;SDS011;9492;51.888;5.186;2023-03-24T08:20:15;9.87;;;2.73;;
18726;SDS011;9492;51.888;5.186;2023-03-24T08:22:44;13.37;;;3.17;;
18726;SDS011;9492;51.888;5.186;2023-03-24T08:25:13;15.87;;;4.03;;
18726;SDS011;9492;51.888;5.186;2023-03-24T08:27:40;16.53;;;3.47;;
18726;SDS011;9492;51.888;5.186;2023-03-24T08:30:09;12.53;;;2.70;;
18726;SDS011;9492;51.888;5.186;2023-03-24T08:32:36;9.37;;;2.70;;
18726;SDS011;9492;51.888;5.186;2023-03-24T08:35:02;6.83;;;2.60;;
18726;SDS011;9492;51.888;5.186;2023-03-24T08:37:29;7.83;;;2.70;;
18726;SDS011;9492;51.888;5.186;2023-03-24T08:39:55;7.03;;;2.63;;
18726;SDS011;9492;51.888;5.186;2023-03-24T08:42:23;14.93;;;3.47;;
18726;SDS011;9492;51.888;5.186;2023-03-24T08:44:49;10.00;;;3.07;;
18726;SDS011;9492;51.888;5.186;2023-03-24T08:47:15;8.83;;;2.93;;
18726;SDS011;9492;51.888;5.186;2023-03-24T08:49:41;9.40;;;2.57;;
18726;SDS011;9492;51.888;5.186;2023-03-24T08:52:07;9.57;;;2.73;;
18726;SDS011;9492;51.888;5.186;2023-03-24T08:54:34;14.53;;;2.93;;
18726;SDS011;9492;51.888;5.186;2023-03-24T08:57:00;11.77;;;3.10;;
18726;SDS011;9492;51.888;5.186;2023-03-24T08:59:26;14.63;;;2.67;;
18726;SDS011;9492;51.888;5.186;2023-03-24T09:01:52;18.27;;;3.80;;
18726;SDS011;9492;51.888;5.186;2023-03-24T09:04:18;8.60;;;2.30;;
18726;SDS011;9492;51.888;5.186;2023-03-24T09:06:44;10.30;;;2.63;;
18726;SDS011;9492;51.888;5.186;2023-03-24T09:09:10;9.53;;;2.87;;
18726;SDS011;9492;51.888;5.186;2023-03-24T09:11:36;6.77;;;2.43;;
18726;SDS011;9492;51.888;5.186;2023-03-24T09:14:03;10.87;;;2.40;;
18726;SDS011;9492;51.888;5.186;2023-03-24T09:16:29;7.60;;;2.07;;
18726;SDS011;9492;51.888;5.186;2023-03-24T09:18:55;9.47;;;2.50;;
18726;SDS011;9492;51.888;5.186;2023-03-24T09:21:21;7.80;;;2.10;;
18726;SDS011;9492;51.888;5.186;2023-03-24T09:23:48;5.27;;;2.00;;
18726;SDS011;9492;51.888;5.186;2023-03-24T09:26:14;10.90;;;2.97;;
18726;SDS011;9492;51.888;5.186;2023-03-24T09:28:40;6.23;;;2.17;;
18726;SDS011;9492;51.888;5.186;2023-03-24T09:31:06;6.97;;;2.23;;
18726;SDS011;9492;51.888;5.186;2023-03-24T09:33:32;9.37;;;1.97;;
18726;SDS011;9492;51.888;5.186;2023-03-24T09:36:00;5.77;;;2.03;;
18726;SDS011;9492;51.888;5.186;2023-03-24T09:38:26;6.93;;;2.20;;
18726;SDS011;9492;51.888;5.186;2023-03-24T09:40:53;7.13;;;2.63;;
18726;SDS011;9492;51.888;5.186;2023-03-24T09:45:56;6.83;;;2.27;;
18726;SDS011;9492;51.888;5.186;2023-03-24T09:50:56;7.37;;;2.37;;
18726;SDS011;9492;51.888;5.186;2023-03-24T09:53:38;8.00;;;2.73;;
18726;SDS011;9492;51.888;5.186;2023-03-24T09:56:16;7.73;;;2.93;;
18726;SDS011;9492;51.888;5.186;2023-03-24T09:58:42;10.70;;;3.13;;
18726;SDS011;9492;51.888;5.186;2023-03-24T10:01:14;11.10;;;3.23;;
18726;SDS011;9492;51.888;5.186;2023-03-24T10:03:41;9.90;;;2.97;;
18726;SDS011;9492;51.888;5.186;2023-03-24T10:06:09;7.07;;;2.90;;
18726;SDS011;9492;51.888;5.186;2023-03-24T10:08:40;8.93;;;2.77;;
18726;SDS011;9492;51.888;5.186;2023-03-24T10:11:12;9.07;;;2.73;;
18726;SDS011;9492;51.888;5.186;2023-03-24T10:16:10;6.37;;;2.50;;
18726;SDS011;9492;51.888;5.186;2023-03-24T10:21:20;8.97;;;3.10;;
18726;SDS011;9492;51.888;5.186;2023-03-24T10:26:48;8.67;;;2.23;;
18726;SDS011;9492;51.888;5.186;2023-03-24T10:29:23;5.13;;;2.17;;
18726;SDS011;9492;51.888;5.186;2023-03-24T10:31:53;6.40;;;2.27;;
18726;SDS011;9492;51.888;5.186;2023-03-24T10:34:26;8.27;;;2.47;;
18726;SDS011;9492;51.888;5.186;2023-03-24T10:36:53;5.83;;;1.97;;
18726;SDS011;9492;51.888;5.186;2023-03-24T10:39:21;6.70;;;2.23;;
18726;SDS011;9492;51.888;5.186;2023-03-24T10:41:47;5.67;;;1.83;;
18726;SDS011;9492;51.888;5.186;2023-03-24T10:44:13;7.87;;;2.37;;
18726;SDS011;9492;51.888;5.186;2023-03-24T10:46:48;14.27;;;2.63;;
18726;SDS011;9492;51.888;5.186;2023-03-24T10:49:16;8.03;;;2.67;;
18726;SDS011;9492;51.888;5.186;2023-03-24T10:51:48;5.97;;;2.50;;
18726;SDS011;9492;51.888;5.186;2023-03-24T10:54:24;4.93;;;2.30;;
18726;SDS011;9492;51.888;5.186;2023-03-24T11:04:25;5.53;;;1.80;;
18726;SDS011;9492;51.888;5.186;2023-03-24T11:06:53;5.93;;;1.93;;
18726;SDS011;9492;51.888;5.186;2023-03-24T11:09:23;6.57;;;2.10;;
18726;SDS011;9492;51.888;5.186;2023-03-24T11:11:49;4.43;;;1.50;;
18726;SDS011;9492;51.888;5.186;2023-03-24T11:14:24;5.73;;;2.07;;
18726;SDS011;9492;51.888;5.186;2023-03-24T11:16:51;7.93;;;2.50;;
18726;SDS011;9492;51.888;5.186;2023-03-24T11:21:43;6.13;;;2.10;;
18726;SDS011;9492;51.888;5.186;2023-03-24T11:24:10;9.50;;;2.57;;
18726;SDS011;9492;51.888;5.186;2023-03-24T11:26:38;3.10;;;1.80;;
18726;SDS011;9492;51.888;5.186;2023-03-24T11:29:06;4.47;;;1.73;;
18726;SDS011;9492;51.888;5.186;2023-03-24T11:31:34;8.10;;;1.97;;
18726;SDS011;9492;51.888;5.186;2023-03-24T11:34:09;5.67;;;1.40;;
18726;SDS011;9492;51.888;5.186;2023-03-24T11:36:36;6.33;;;2.60;;
18726;SDS011;9492;51.888;5.186;2023-03-24T11:39:14;4.17;;;1.70;;
18726;SDS011;9492;51.888;5.186;2023-03-24T11:44:29;7.07;;;1.90;;
18726;SDS011;9492;51.888;5.186;2023-03-24T11:46:59;3.43;;;1.40;;
18726;SDS011;9492;51.888;5.186;2023-03-24T11:49:29;1.50;;;1.40;;
18726;SDS011;9492;51.888;5.186;2023-03-24T11:51:56;7.17;;;1.77;;
18726;SDS011;9492;51.888;5.186;2023-03-24T11:54:23;8.87;;;2.33;;
18726;SDS011;9492;51.888;5.186;2023-03-24T11:57:13;4.47;;;1.67;;
18726;SDS011;9492;51.888;5.186;2023-03-24T11:59:44;6.83;;;1.97;;
18726;SDS011;9492;51.888;5.186;2023-03-24T12:17:42;7.87;;;2.77;;
18726;SDS011;9492;51.888;5.186;2023-03-24T12:20:32;9.03;;;3.00;;
18726;SDS011;9492;51.888;5.186;2023-03-24T12:23:06;9.50;;;3.27;;
18726;SDS011;9492;51.888;5.186;2023-03-24T12:28:21;9.57;;;2.50;;
18726;SDS011;9492;51.888;5.186;2023-03-24T12:31:10;9.30;;;1.87;;
18726;SDS011;9492;51.888;5.186;2023-03-24T12:36:12;9.43;;;2.30;;
18726;SDS011;9492;51.888;5.186;2023-03-24T12:38:58;7.43;;;2.00;;
18726;SDS011;9492;51.888;5.186;2023-03-24T12:54:57;4.90;;;1.90;;
18726;SDS011;9492;51.888;5.186;2023-03-24T12:57:31;4.97;;;1.60;;
18726;SDS011;9492;51.888;5.186;2023-03-24T13:00:10;4.23;;;1.43;;
18726;SDS011;9492;51.888;5.186;2023-03-24T13:02:38;7.63;;;2.30;;
18726;SDS011;9492;51.888;5.186;2023-03-24T13:05:06;3.10;;;1.53;;
18726;SDS011;9492;51.888;5.186;2023-03-24T13:07:35;3.73;;;1.80;;
18726;SDS011;9492;51.888;5.186;2023-03-24T13:10:24;6.67;;;2.07;;
18726;SDS011;9492;51.888;5.186;2023-03-24T13:12:57;4.63;;;2.00;;
18726;SDS011;9492;51.888;5.186;2023-03-24T13:15:27;6.23;;;2.20;;
18726;SDS011;9492;51.888;5.186;2023-03-24T13:20:26;5.17;;;2.20;;
18726;SDS011;9492;51.888;5.186;2023-03-24T13:22:53;7.00;;;2.20;;
18726;SDS011;9492;51.888;5.186;2023-03-24T13:25:40;4.40;;;1.63;;
18726;SDS011;9492;51.888;5.186;2023-03-24T13:28:11;11.33;;;2.93;;
18726;SDS011;9492;51.888;5.186;2023-03-24T13:30:40;4.37;;;1.47;;
18726;SDS011;9492;51.888;5.186;2023-03-24T13:33:27;3.50;;;1.10;;
18726;SDS011;9492;51.888;5.186;2023-03-24T13:40:51;4.70;;;1.40;;
18726;SDS011;9492;51.888;5.186;2023-03-24T13:43:19;2.10;;;0.90;;
18726;SDS011;9492;51.888;5.186;2023-03-24T13:45:48;3.03;;;0.90;;
18726;SDS011;9492;51.888;5.186;2023-03-24T13:48:17;2.87;;;0.87;;
18726;SDS011;9492;51.888;5.186;2023-03-24T13:50:52;4.40;;;1.43;;
18726;SDS011;9492;51.888;5.186;2023-03-24T13:53:19;5.67;;;1.33;;
18726;SDS011;9492;51.888;5.186;2023-03-24T13:55:50;2.90;;;1.17;;
18726;SDS011;9492;51.888;5.186;2023-03-24T13:58:24;2.87;;;1.20;;
18726;SDS011;9492;51.888;5.186;2023-03-24T14:03:40;3.10;;;1.03;;
18726;SDS011;9492;51.888;5.186;2023-03-24T14:06:07;4.63;;;1.00;;
18726;SDS011;9492;51.888;5.186;2023-03-24T14:11:09;3.10;;;0.90;;
18726;SDS011;9492;51.888;5.186;2023-03-24T14:13:51;1.53;;;0.60;;
18726;SDS011;9492;51.888;5.186;2023-03-24T14:19:07;1.30;;;0.80;;
18726;SDS011;9492;51.888;5.186;2023-03-24T14:21:34;2.53;;;1.07;;
18726;SDS011;9492;51.888;5.186;2023-03-24T14:24:01;2.50;;;0.70;;
18726;SDS011;9492;51.888;5.186;2023-03-24T14:26:30;3.23;;;1.20;;
18726;SDS011;9492;51.888;5.186;2023-03-24T14:28:58;3.50;;;1.33;;
18726;SDS011;9492;51.888;5.186;2023-03-24T14:31:28;1.17;;;0.83;;
18726;SDS011;9492;51.888;5.186;2023-03-24T14:36:28;1.13;;;0.70;;
18726;SDS011;9492;51.888;5.186;2023-03-24T14:38:55;1.47;;;1.00;;
18726;SDS011;9492;51.888;5.186;2023-03-24T14:41:26;4.00;;;1.10;;
18726;SDS011;9492;51.888;5.186;2023-03-24T14:43:56;3.87;;;1.80;;
18726;SDS011;9492;51.888;5.186;2023-03-24T14:46:33;5.07;;;1.50;;
18726;SDS011;9492;51.888;5.186;2023-03-24T14:54:03;4.33;;;1.27;;
18726;SDS011;9492;51.888;5.186;2023-03-24T14:56:34;4.53;;;1.10;;
18726;SDS011;9492;51.888;5.186;2023-03-24T14:59:02;3.73;;;1.13;;
18726;SDS011;9492;51.888;5.186;2023-03-24T15:01:30;5.33;;;1.47;;
18726;SDS011;9492;51.888;5.186;2023-03-24T15:04:00;4.17;;;1.10;;
18726;SDS011;9492;51.888;5.186;2023-03-24T15:06:28;4.00;;;1.03;;
18726;SDS011;9492;51.888;5.186;2023-03-24T15:08:59;4.63;;;1.40;;
18726;SDS011;9492;51.888;5.186;2023-03-24T15:11:33;8.67;;;1.43;;
18726;SDS011;9492;51.888;5.186;2023-03-24T15:14:00;7.67;;;1.90;;
18726;SDS011;9492;51.888;5.186;2023-03-24T15:16:27;7.27;;;2.03;;
18726;SDS011;9492;51.888;5.186;2023-03-24T15:18:55;9.60;;;2.37;;
18726;SDS011;9492;51.888;5.186;2023-03-24T15:23:54;4.23;;;1.73;;
18726;SDS011;9492;51.888;5.186;2023-03-24T15:26:21;5.00;;;1.37;;
18726;SDS011;9492;51.888;5.186;2023-03-24T15:28:53;7.30;;;1.97;;
18726;SDS011;9492;51.888;5.186;2023-03-24T15:31:20;5.67;;;1.73;;
18726;SDS011;9492;51.888;5.186;2023-03-24T15:33:48;5.20;;;1.93;;
18726;SDS011;9492;51.888;5.186;2023-03-24T15:36:15;7.27;;;2.37;;
18726;SDS011;9492;51.888;5.186;2023-03-24T15:38:45;5.50;;;1.70;;
18726;SDS011;9492;51.888;5.186;2023-03-24T15:41:12;6.90;;;2.27;;
18726;SDS011;9492;51.888;5.186;2023-03-24T15:43:44;5.27;;;1.40;;
18726;SDS011;9492;51.888;5.186;2023-03-24T15:46:24;8.70;;;2.40;;
18726;SDS011;9492;51.888;5.186;2023-03-24T15:48:53;6.20;;;1.63;;
18726;SDS011;9492;51.888;5.186;2023-03-24T15:51:43;5.57;;;1.73;;
18726;SDS011;9492;51.888;5.186;2023-03-24T15:54:14;6.10;;;2.20;;
18726;SDS011;9492;51.888;5.186;2023-03-24T15:56:42;5.20;;;1.73;;
18726;SDS011;9492;51.888;5.186;2023-03-24T16:01:34;5.73;;;2.23;;
18726;SDS011;9492;51.888;5.186;2023-03-24T16:04:20;4.63;;;1.73;;
18726;SDS011;9492;51.888;5.186;2023-03-24T16:06:48;8.87;;;2.07;;
18726;SDS011;9492;51.888;5.186;2023-03-24T16:09:15;6.57;;;2.10;;
18726;SDS011;9492;51.888;5.186;2023-03-24T16:11:45;7.27;;;2.20;;
18726;SDS011;9492;51.888;5.186;2023-03-24T16:14:28;9.03;;;2.13;;
18726;SDS011;9492;51.888;5.186;2023-03-24T16:16:57;7.27;;;1.97;;
18726;SDS011;9492;51.888;5.186;2023-03-24T16:19:23;7.93;;;1.50;;
18726;SDS011;9492;51.888;5.186;2023-03-24T16:21:49;8.47;;;1.93;;
18726;SDS011;9492;51.888;5.186;2023-03-24T16:24:15;7.00;;;2.07;;
18726;SDS011;9492;51.888;5.186;2023-03-24T16:26:41;6.20;;;1.97;;
18726;SDS011;9492;51.888;5.186;2023-03-24T16:29:13;8.13;;;1.73;;
18726;SDS011;9492;51.888;5.186;2023-03-24T16:31:40;4.93;;;1.50;;
18726;SDS011;9492;51.888;5.186;2023-03-24T16:34:08;6.23;;;1.53;;
18726;SDS011;9492;51.888;5.186;2023-03-24T16:36:34;7.97;;;1.93;;
18726;SDS011;9492;51.888;5.186;2023-03-24T16:39:01;9.23;;;2.60;;
18726;SDS011;9492;51.888;5.186;2023-03-24T16:41:27;4.67;;;1.40;;
18726;SDS011;9492;51.888;5.186;2023-03-24T16:43:54;5.53;;;1.53;;
18726;SDS011;9492;51.888;5.186;2023-03-24T16:48:52;4.37;;;1.20;;
18726;SDS011;9492;51.888;5.186;2023-03-24T16:51:18;3.43;;;1.50;;
18726;SDS011;9492;51.888;5.186;2023-03-24T16:53:44;3.97;;;1.50;;
18726;SDS011;9492;51.888;5.186;2023-03-24T16:56:11;6.03;;;1.57;;
18726;SDS011;9492;51.888;5.186;2023-03-24T16:58:38;5.67;;;1.23;;
18726;SDS011;9492;51.888;5.186;2023-03-24T17:03:57;9.17;;;2.00;;
18726;SDS011;9492;51.888;5.186;2023-03-24T17:06:24;6.70;;;1.30;;
18726;SDS011;9492;51.888;5.186;2023-03-24T17:08:50;4.47;;;1.40;;
18726;SDS011;9492;51.888;5.186;2023-03-24T17:11:19;3.63;;;1.47;;
18726;SDS011;9492;51.888;5.186;2023-03-24T17:13:48;6.67;;;1.80;;
18726;SDS011;9492;51.888;5.186;2023-03-24T17:16:15;9.53;;;1.83;;
18726;SDS011;9492;51.888;5.186;2023-03-24T17:18:41;6.53;;;1.60;;
18726;SDS011;9492;51.888;5.186;2023-03-24T17:21:11;8.13;;;2.00;;
18726;SDS011;9492;51.888;5.186;2023-03-24T17:23:40;6.20;;;1.60;;
18726;SDS011;9492;51.888;5.186;2023-03-24T17:26:06;4.60;;;2.00;;
18726;SDS011;9492;51.888;5.186;2023-03-24T17:28:32;8.37;;;1.83;;
18726;SDS011;9492;51.888;5.186;2023-03-24T17:31:07;5.63;;;1.50;;
18726;SDS011;9492;51.888;5.186;2023-03-24T17:33:33;7.23;;;1.70;;
18726;SDS011;9492;51.888;5.186;2023-03-24T17:36:00;5.33;;;2.23;;
18726;SDS011;9492;51.888;5.186;2023-03-24T17:38:26;6.17;;;2.00;;
18726;SDS011;9492;51.888;5.186;2023-03-24T17:40:59;5.77;;;1.67;;
18726;SDS011;9492;51.888;5.186;2023-03-24T17:43:25;3.37;;;1.30;;
18726;SDS011;9492;51.888;5.186;2023-03-24T17:45:54;4.47;;;1.87;;
18726;SDS011;9492;51.888;5.186;2023-03-24T17:48:20;5.73;;;1.23;;
18726;SDS011;9492;51.888;5.186;2023-03-24T17:50:46;4.70;;;1.67;;
18726;SDS011;9492;51.888;5.186;2023-03-24T17:53:12;3.27;;;1.40;;
18726;SDS011;9492;51.888;5.186;2023-03-24T17:55:39;7.60;;;2.47;;
18726;SDS011;9492;51.888;5.186;2023-03-24T17:58:06;4.07;;;1.40;;
18726;SDS011;9492;51.888;5.186;2023-03-24T18:00:32;9.73;;;1.90;;
18726;SDS011;9492;51.888;5.186;2023-03-24T18:02:58;5.60;;;1.60;;
18726;SDS011;9492;51.888;5.186;2023-03-24T18:05:24;4.63;;;1.53;;
18726;SDS011;9492;51.888;5.186;2023-03-24T18:07:50;5.33;;;2.03;;
18726;SDS011;9492;51.888;5.186;2023-03-24T18:10:16;5.57;;;1.67;;
18726;SDS011;9492;51.888;5.186;2023-03-24T18:12:42;4.93;;;1.50;;
18726;SDS011;9492;51.888;5.186;2023-03-24T18:15:09;3.53;;;1.10;;
18726;SDS011;9492;51.888;5.186;2023-03-24T18:17:35;4.50;;;1.40;;
18726;SDS011;9492;51.888;5.186;2023-03-24T18:20:01;3.93;;;1.63;;
18726;SDS011;9492;51.888;5.186;2023-03-24T18:22:34;7.07;;;1.90;;
18726;SDS011;9492;51.888;5.186;2023-03-24T18:25:02;6.13;;;1.70;;
18726;SDS011;9492;51.888;5.186;2023-03-24T18:27:28;3.80;;;1.27;;
18726;SDS011;9492;51.888;5.186;2023-03-24T18:29:54;8.27;;;1.37;;
18726;SDS011;9492;51.888;5.186;2023-03-24T18:32:23;4.20;;;1.60;;
18726;SDS011;9492;51.888;5.186;2023-03-24T18:34:51;2.67;;;1.40;;
18726;SDS011;9492;51.888;5.186;2023-03-24T18:37:17;4.33;;;1.50;;
18726;SDS011;9492;51.888;5.186;2023-03-24T18:39:43;3.40;;;1.77;;
18726;SDS011;9492;51.888;5.186;2023-03-24T18:42:09;5.77;;;1.60;;
18726;SDS011;9492;51.888;5.186;2023-03-24T18:44:35;7.23;;;1.87;;
18726;SDS011;9492;51.888;5.186;2023-03-24T18:47:01;7.47;;;1.50;;
18726;SDS011;9492;51.888;5.186;2023-03-24T18:49:27;4.03;;;1.70;;
18726;SDS011;9492;51.888;5.186;2023-03-24T18:51:53;5.33;;;1.47;;
18726;SDS011;9492;51.888;5.186;2023-03-24T18:54:19;4.57;;;1.37;;
18726;SDS011;9492;51.888;5.186;2023-03-24T18:56:45;7.70;;;1.50;;
18726;SDS011;9492;51.888;5.186;2023-03-24T18:59:16;3.50;;;1.47;;
18726;SDS011;9492;51.888;5.186;2023-03-24T19:01:43;7.33;;;1.40;;
18726;SDS011;9492;51.888;5.186;2023-03-24T19:04:11;2.37;;;1.17;;
18726;SDS011;9492;51.888;5.186;2023-03-24T19:06:37;4.20;;;1.30;;
18726;SDS011;9492;51.888;5.186;2023-03-24T19:09:06;5.67;;;1.33;;
18726;SDS011;9492;51.888;5.186;2023-03-24T19:11:33;6.50;;;1.40;;
18726;SDS011;9492;51.888;5.186;2023-03-24T19:14:04;5.57;;;1.47;;
18726;SDS011;9492;51.888;5.186;2023-03-24T19:16:31;7.03;;;1.20;;
18726;SDS011;9492;51.888;5.186;2023-03-24T19:18:57;5.37;;;1.60;;
18726;SDS011;9492;51.888;5.186;2023-03-24T19:21:24;7.63;;;1.50;;
18726;SDS011;9492;51.888;5.186;2023-03-24T19:23:53;5.03;;;1.60;;
18726;SDS011;9492;51.888;5.186;2023-03-24T19:26:20;3.97;;;1.53;;
18726;SDS011;9492;51.888;5.186;2023-03-24T19:28:46;5.93;;;1.37;;
18726;SDS011;9492;51.888;5.186;2023-03-24T19:31:13;3.27;;;1.37;;
18726;SDS011;9492;51.888;5.186;2023-03-24T19:33:41;4.57;;;1.30;;
18726;SDS011;9492;51.888;5.186;2023-03-24T19:36:07;5.53;;;1.93;;
18726;SDS011;9492;51.888;5.186;2023-03-24T19:38:34;3.50;;;1.50;;
18726;SDS011;9492;51.888;5.186;2023-03-24T19:41:07;6.40;;;2.13;;
18726;SDS011;9492;51.888;5.186;2023-03-24T19:43:34;4.80;;;1.40;;
18726;SDS011;9492;51.888;5.186;2023-03-24T19:46:00;3.20;;;1.77;;
18726;SDS011;9492;51.888;5.186;2023-03-24T19:48:27;3.37;;;1.70;;
18726;SDS011;9492;51.888;5.186;2023-03-24T19:50:53;6.53;;;2.90;;
18726;SDS011;9492;51.888;5.186;2023-03-24T19:53:20;5.60;;;2.53;;
18726;SDS011;9492;51.888;5.186;2023-03-24T19:55:47;5.67;;;2.00;;
18726;SDS011;9492;51.888;5.186;2023-03-24T19:58:13;3.37;;;1.90;;
18726;SDS011;9492;51.888;5.186;2023-03-24T20:00:40;6.13;;;1.87;;
18726;SDS011;9492;51.888;5.186;2023-03-24T20:03:06;5.07;;;1.90;;
18726;SDS011;9492;51.888;5.186;2023-03-24T20:05:33;5.83;;;2.00;;
18726;SDS011;9492;51.888;5.186;2023-03-24T20:07:59;6.27;;;2.03;;
18726;SDS011;9492;51.888;5.186;2023-03-24T20:10:25;5.07;;;2.03;;
18726;SDS011;9492;51.888;5.186;2023-03-24T20:12:52;6.43;;;2.20;;
18726;SDS011;9492;51.888;5.186;2023-03-24T20:15:18;5.60;;;1.70;;
18726;SDS011;9492;51.888;5.186;2023-03-24T20:17:44;6.63;;;2.27;;
18726;SDS011;9492;51.888;5.186;2023-03-24T20:20:13;5.83;;;2.33;;
18726;SDS011;9492;51.888;5.186;2023-03-24T20:22:47;5.67;;;2.27;;
18726;SDS011;9492;51.888;5.186;2023-03-24T20:25:14;6.27;;;2.27;;